createdAt,value
2022-10-13T00:03:03.174Z,14.40
2022-10-13T00:08:05.636Z,14.60
2022-10-13T00:13:11.042Z,14.60
2022-10-13T00:18:14.269Z,14.70
2022-10-13T00:23:17.902Z,14.60
2022-10-13T00:28:20.958Z,14.60
2022-10-13T00:33:23.402Z,14.50
2022-10-13T00:38:25.716Z,14.40
2022-10-13T00:43:52.039Z,14.30
2022-10-13T00:48:56.722Z,14.40
2022-10-13T00:54:01.744Z,14.30
2022-10-13T00:59:09.376Z,14.20
2022-10-13T01:04:12.126Z,14.40
2022-10-13T01:09:14.682Z,14.40
2022-10-13T01:14:32.926Z,13.80
2022-10-13T01:19:51.207Z,14.40
2022-10-13T01:25:25.156Z,14.40
2022-10-13T01:30:29.425Z,14.40
2022-10-13T01:35:32.375Z,14.30
2022-10-13T01:40:49.963Z,14.30
2022-10-13T01:46:07.133Z,14.20
2022-10-13T01:51:14.556Z,14.20
2022-10-13T01:56:17.343Z,14.20
2022-10-13T02:01:41.243Z,14.20
2022-10-13T02:06:54.030Z,14.40
2022-10-13T02:12:22.507Z,14.30
2022-10-13T02:17:34.774Z,14.20
2022-10-13T02:22:47.277Z,14.40
2022-10-13T02:27:50.617Z,14.50
2022-10-13T02:32:53.371Z,14.60
2022-10-13T02:37:55.696Z,14.50
2022-10-13T02:42:59.823Z,14.80
2022-10-13T02:48:02.319Z,14.80
2022-10-13T02:53:04.646Z,14.80
2022-10-13T02:58:07.217Z,14.60
2022-10-13T03:03:11.373Z,14.60
2022-10-13T03:08:15.685Z,14.60
2022-10-13T03:13:19.555Z,14.50
2022-10-13T03:18:22.415Z,14.50
2022-10-13T03:23:26.415Z,14.70
2022-10-13T03:28:29.156Z,14.70
2022-10-13T03:33:48.364Z,14.60
2022-10-13T03:38:51.101Z,14.70
2022-10-13T03:43:54.338Z,14.60
2022-10-13T03:48:57.130Z,14.60
2022-10-13T03:53:59.791Z,14.60
2022-10-13T03:59:04.862Z,14.70
2022-10-13T04:04:09.311Z,14.70
2022-10-13T04:09:13.290Z,14.50
2022-10-13T04:14:15.590Z,14.40
2022-10-13T04:19:18.042Z,14.50
2022-10-13T04:24:24.839Z,14.40
2022-10-13T04:29:27.777Z,14.30
2022-10-13T04:34:30.338Z,14.40
2022-10-13T04:39:33.418Z,14.50
2022-10-13T04:44:35.999Z,14.40
2022-10-13T04:49:39.680Z,14.40
2022-10-13T04:54:43.367Z,14.40
2022-10-13T04:59:47.692Z,14.50
2022-10-13T05:04:50.172Z,14.50
2022-10-13T05:09:54.498Z,14.40
2022-10-13T05:14:57.835Z,14.60
2022-10-13T05:20:00.203Z,14.60
2022-10-13T05:25:02.762Z,14.50
2022-10-13T05:30:05.684Z,14.60
2022-10-13T05:35:08.926Z,14.50
2022-10-13T05:40:14.157Z,14.50
2022-10-13T05:45:18.633Z,14.40
2022-10-13T05:50:21.259Z,14.60
2022-10-13T05:55:27.652Z,14.70
2022-10-13T06:00:30.455Z,14.70
2022-10-13T06:05:33.253Z,14.50
2022-10-13T06:10:37.762Z,14.40
2022-10-13T06:15:40.270Z,14.30
2022-10-13T06:20:43.542Z,14.20
2022-10-13T06:25:52.426Z,14.20
2022-10-13T06:30:56.817Z,14.00
2022-10-13T06:36:04.219Z,14.10
2022-10-13T06:41:06.835Z,14.10
2022-10-13T06:46:12.406Z,13.90
2022-10-13T06:51:15.548Z,14.10
2022-10-13T06:56:17.982Z,14.10
2022-10-13T07:01:20.734Z,14.10
2022-10-13T07:06:23.511Z,14.20
2022-10-13T07:11:26.874Z,14.20
2022-10-13T07:16:32.169Z,14.30
2022-10-13T07:21:37.315Z,14.30
2022-10-13T07:26:40.034Z,14.30
2022-10-13T07:31:46.499Z,14.10
2022-10-13T07:36:48.994Z,14.10
2022-10-13T07:41:51.511Z,14.10
2022-10-13T07:46:53.924Z,14.20
2022-10-13T07:51:56.230Z,14.40
2022-10-13T07:56:58.711Z,14.30
2022-10-13T08:02:01.749Z,14.50
2022-10-13T08:07:05.826Z,14.60
2022-10-13T08:12:08.509Z,14.60
2022-10-13T08:17:10.882Z,14.60
2022-10-13T08:22:14.214Z,14.70
2022-10-13T08:27:22.069Z,14.70
2022-10-13T08:32:24.783Z,14.80
2022-10-13T08:37:27.128Z,14.90
2022-10-13T08:42:29.610Z,14.90
2022-10-13T08:47:43.757Z,15.00
2022-10-13T08:53:32.052Z,15.10
2022-10-13T08:58:37.423Z,15.40
2022-10-13T09:04:08.557Z,15.40
2022-10-13T09:09:12.716Z,15.40
2022-10-13T09:14:32.619Z,15.50
2022-10-13T09:19:36.473Z,15.50
2022-10-13T09:24:41.283Z,15.30
2022-10-13T09:29:45.298Z,15.10
2022-10-13T09:34:52.790Z,15.30
2022-10-13T09:40:21.897Z,15.40
2022-10-13T09:45:26.558Z,15.40
2022-10-13T09:50:31.800Z,15.50
2022-10-13T09:55:36.097Z,15.70
2022-10-13T10:00:39.490Z,15.80
2022-10-13T10:05:44.920Z,16.00
2022-10-13T10:10:47.679Z,16.10
2022-10-13T10:15:58.571Z,16.40
2022-10-13T10:21:16.819Z,16.60
2022-10-13T10:26:55.500Z,16.70
2022-10-13T10:32:11.504Z,16.60
2022-10-13T10:37:21.126Z,16.80
2022-10-13T10:42:40.837Z,16.70
2022-10-13T10:47:46.577Z,16.70
2022-10-13T10:53:15.862Z,16.80
2022-10-13T10:58:18.095Z,16.90
2022-10-13T11:03:43.487Z,17.00
2022-10-13T11:08:47.722Z,17.10
2022-10-13T11:14:00.351Z,17.00
2022-10-13T11:19:07.830Z,17.10
2022-10-13T11:24:39.452Z,16.90
2022-10-13T11:29:44.518Z,16.80
2022-10-13T11:35:08.161Z,16.80
2022-10-13T11:40:41.406Z,16.90
2022-10-13T11:45:55.744Z,17.00
2022-10-13T11:51:16.471Z,17.00
2022-10-13T11:56:22.085Z,17.10
2022-10-13T12:01:24.336Z,17.30
2022-10-13T12:06:34.095Z,17.20
2022-10-13T12:11:38.427Z,17.40
2022-10-13T12:22:01.108Z,17.20
2022-10-13T12:27:20.222Z,17.30
2022-10-13T12:32:26.478Z,17.20
2022-10-13T12:37:33.338Z,17.30
2022-10-13T12:42:37.699Z,17.30
2022-10-13T12:47:47.226Z,17.30
2022-10-13T12:52:52.698Z,17.40
2022-10-13T12:57:55.828Z,17.50
2022-10-13T13:03:01.946Z,17.50
2022-10-13T13:08:27.177Z,17.60
2022-10-13T13:13:30.211Z,17.70
2022-10-13T13:18:39.509Z,17.80
2022-10-13T13:23:43.753Z,17.70
2022-10-13T13:28:52.912Z,17.80
2022-10-13T13:33:55.313Z,17.70
2022-10-13T13:38:57.586Z,17.80
2022-10-13T13:43:59.982Z,17.80
2022-10-13T13:49:02.812Z,17.90
2022-10-13T13:54:06.184Z,17.70
2022-10-13T13:59:08.441Z,17.70
2022-10-13T14:04:10.756Z,17.70
2022-10-13T14:09:13.181Z,17.70
2022-10-13T14:14:15.569Z,17.70
2022-10-13T14:19:18.019Z,17.60
2022-10-13T14:24:20.359Z,17.60
2022-10-13T14:29:27.870Z,17.60
2022-10-13T14:34:31.040Z,17.70
2022-10-13T14:39:34.553Z,17.70
2022-10-13T14:44:37.210Z,17.70
2022-10-13T14:49:39.447Z,17.70
2022-10-13T14:54:44.805Z,17.70
2022-10-13T14:59:47.488Z,17.80
2022-10-13T15:04:49.703Z,17.70
2022-10-13T15:10:04.340Z,17.70
2022-10-13T15:15:07.711Z,17.80
2022-10-13T15:20:10.353Z,17.80
2022-10-13T15:25:12.899Z,18.00
2022-10-13T15:30:15.330Z,17.90
2022-10-13T15:35:17.572Z,17.70
2022-10-13T15:40:19.898Z,17.50
2022-10-13T15:45:22.193Z,17.30
2022-10-13T15:50:25.245Z,17.30
2022-10-13T15:55:28.839Z,16.80
2022-10-13T16:00:31.373Z,16.80
2022-10-13T16:05:33.786Z,16.70
2022-10-13T16:10:39.702Z,16.80
2022-10-13T16:15:42.922Z,16.90
2022-10-13T16:20:45.428Z,16.90
2022-10-13T16:25:47.876Z,16.80
2022-10-13T16:30:56.421Z,16.70
2022-10-13T16:36:06.626Z,16.80
2022-10-13T16:41:12.494Z,17.00
2022-10-13T16:46:17.272Z,16.70
2022-10-13T16:51:21.470Z,16.80
2022-10-13T16:56:25.275Z,16.60
2022-10-13T17:01:28.995Z,16.60
2022-10-13T17:06:33.611Z,16.70
2022-10-13T17:11:45.093Z,16.80
2022-10-13T17:16:47.442Z,16.80
2022-10-13T17:21:53.281Z,16.80
2022-10-13T17:26:55.914Z,17.10
2022-10-13T17:31:58.890Z,16.80
2022-10-13T17:37:01.191Z,16.90
2022-10-13T17:42:03.685Z,16.50
2022-10-13T17:47:06.065Z,16.10
2022-10-13T17:52:08.386Z,16.00
2022-10-13T17:57:10.674Z,15.90
2022-10-13T18:02:13.534Z,15.70
2022-10-13T18:07:15.994Z,15.50
2022-10-13T18:12:18.995Z,15.80
2022-10-13T18:17:21.782Z,15.70
2022-10-13T18:22:24.330Z,15.70
2022-10-13T18:27:26.774Z,15.60
2022-10-13T18:32:29.120Z,15.70
2022-10-13T18:37:31.565Z,15.70
2022-10-13T18:42:33.854Z,15.70
2022-10-13T18:47:36.277Z,15.70
2022-10-13T18:52:40.066Z,15.70
2022-10-13T18:57:42.448Z,15.90
2022-10-13T19:02:44.951Z,16.00
2022-10-13T19:07:47.354Z,16.20
2022-10-13T19:12:49.869Z,16.10
2022-10-13T19:17:55.609Z,16.10
2022-10-13T19:23:01.393Z,16.00
2022-10-13T19:28:03.769Z,16.00
2022-10-13T19:33:07.397Z,16.10
2022-10-13T19:38:16.365Z,16.10
2022-10-13T19:43:21.403Z,16.20
2022-10-13T19:48:23.894Z,16.30
2022-10-13T19:53:26.259Z,16.20
2022-10-13T19:58:28.982Z,16.40
2022-10-13T20:03:31.537Z,16.40
2022-10-13T20:08:33.991Z,16.30
2022-10-13T20:13:37.259Z,16.30
2022-10-13T20:18:40.761Z,16.00
2022-10-13T20:23:43.935Z,16.20
2022-10-13T20:28:49.491Z,16.30
2022-10-13T20:33:56.725Z,16.40
2022-10-13T20:38:59.133Z,16.40
2022-10-13T20:44:02.043Z,16.20
2022-10-13T20:49:11.802Z,16.50
2022-10-13T20:54:15.686Z,16.60
2022-10-13T20:59:17.994Z,16.70
2022-10-13T21:04:20.785Z,16.70
2022-10-13T21:09:23.087Z,16.70
2022-10-13T21:14:25.607Z,16.60
2022-10-13T21:19:29.286Z,16.60
2022-10-13T21:24:32.007Z,16.60
2022-10-13T21:29:34.372Z,16.50
2022-10-13T21:34:36.856Z,16.60
2022-10-13T21:39:39.530Z,16.60
2022-10-13T21:44:41.946Z,16.60
2022-10-13T21:49:44.380Z,16.50
2022-10-13T21:54:49.415Z,16.60
2022-10-13T21:59:51.678Z,16.40
2022-10-13T22:04:54.043Z,16.30
2022-10-13T22:09:56.299Z,16.30
2022-10-13T22:14:58.614Z,16.10
2022-10-13T22:20:00.985Z,16.00
2022-10-13T22:25:03.478Z,16.30
2022-10-13T22:30:08.245Z,16.40
2022-10-13T22:35:10.671Z,16.30
2022-10-13T22:40:13.049Z,16.30
2022-10-13T22:45:15.445Z,16.50
2022-10-13T22:50:19.273Z,16.40
2022-10-13T22:55:21.818Z,16.00
2022-10-13T23:00:24.062Z,16.20
2022-10-13T23:05:26.385Z,16.30
2022-10-13T23:10:28.748Z,16.50
2022-10-13T23:15:31.734Z,16.60
2022-10-13T23:20:34.033Z,16.70
2022-10-13T23:25:37.491Z,16.70
2022-10-13T23:30:39.727Z,16.70
2022-10-13T23:35:42.081Z,16.70
2022-10-13T23:40:44.437Z,16.60
2022-10-13T23:45:47.233Z,16.60
2022-10-13T23:50:49.917Z,16.60
2022-10-13T23:55:52.312Z,16.70
